createdAt,value
2023-04-11T00:00:11.065Z,95.05
2023-04-11T00:00:42.705Z,95.08
2023-04-11T00:01:14.264Z,95.20
2023-04-11T00:01:49.214Z,95.17
2023-04-11T00:02:23.129Z,95.05
2023-04-11T00:02:59.920Z,95.19
2023-04-11T00:03:33.099Z,95.45
2023-04-11T00:04:05.031Z,95.16
2023-04-11T00:04:39.242Z,95.09
2023-04-11T00:05:11.150Z,94.98
2023-04-11T00:05:43.030Z,94.89
2023-04-11T00:06:14.755Z,94.94
2023-04-11T00:06:47.884Z,94.97
2023-04-11T00:07:19.444Z,94.94
2023-04-11T00:07:51.011Z,94.94
2023-04-11T00:08:22.666Z,94.87
2023-04-11T00:08:54.594Z,94.71
2023-04-11T00:09:26.904Z,94.48
2023-04-11T00:09:58.483Z,94.21
2023-04-11T00:10:30.193Z,94.07
2023-04-11T00:11:01.759Z,94.46
2023-04-11T00:11:33.405Z,94.87
2023-04-11T00:12:05.438Z,94.99
2023-04-11T00:12:37.062Z,95.03
2023-04-11T00:13:10.442Z,94.82
2023-04-11T00:13:43.144Z,95.00
2023-04-11T00:14:15.384Z,95.13
2023-04-11T00:14:49.104Z,95.35
2023-04-11T00:15:24.101Z,95.21
2023-04-11T00:15:55.928Z,95.27
2023-04-11T00:16:27.742Z,95.27
2023-04-11T00:17:01.538Z,95.26
2023-04-11T00:17:33.537Z,95.32
2023-04-11T00:18:06.804Z,95.21
2023-04-11T00:18:39.487Z,95.07
2023-04-11T00:19:11.187Z,95.20
2023-04-11T00:19:53.383Z,95.41
2023-04-11T00:20:25.006Z,95.21
2023-04-11T00:20:56.615Z,95.17
2023-04-11T00:21:28.304Z,95.26
2023-04-11T00:22:00.612Z,95.75
2023-04-11T00:22:33.630Z,95.82
2023-04-11T00:23:05.250Z,95.65
2023-04-11T00:23:36.898Z,95.62
2023-04-11T00:24:08.988Z,95.54
2023-04-11T00:24:40.658Z,95.62
2023-04-11T00:25:12.427Z,95.70
2023-04-11T00:25:44.016Z,95.75
2023-04-11T00:26:15.695Z,95.62
2023-04-11T00:26:47.310Z,95.58
2023-04-11T00:27:21.369Z,95.64
2023-04-11T00:27:54.136Z,95.65
2023-04-11T00:28:25.740Z,95.70
2023-04-11T00:28:57.357Z,95.75
2023-04-11T00:29:29.027Z,95.58
2023-04-11T00:30:00.856Z,95.47
2023-04-11T00:30:32.585Z,95.45
2023-04-11T00:31:04.333Z,95.27
2023-04-11T00:31:35.947Z,95.05
2023-04-11T00:32:07.896Z,95.18
2023-04-11T00:32:39.717Z,95.05
2023-04-11T00:33:11.372Z,94.84
2023-04-11T00:33:43.106Z,94.71
2023-04-11T00:34:14.740Z,94.51
2023-04-11T00:34:46.366Z,94.32
2023-04-11T00:35:18.166Z,94.30
2023-04-11T00:35:49.829Z,94.15
2023-04-11T00:36:22.012Z,94.05
2023-04-11T00:36:54.073Z,94.02
2023-04-11T00:37:25.849Z,94.03
2023-04-11T00:37:58.668Z,94.01
2023-04-11T00:38:30.496Z,93.88
2023-04-11T00:39:02.117Z,93.75
2023-04-11T00:39:35.345Z,93.82
2023-04-11T00:40:07.775Z,94.06
2023-04-11T00:40:39.477Z,94.27
2023-04-11T00:41:11.141Z,94.40
2023-04-11T00:41:42.760Z,94.70
2023-04-11T00:42:14.332Z,95.80
2023-04-11T00:42:45.923Z,96.06
2023-04-11T00:43:17.540Z,96.10
2023-04-11T00:43:49.929Z,95.84
2023-04-11T00:44:22.413Z,95.21
2023-04-11T00:44:54.032Z,94.64
2023-04-11T00:45:26.057Z,94.63
2023-04-11T00:45:57.832Z,94.78
2023-04-11T00:46:29.802Z,95.03
2023-04-11T00:47:03.096Z,95.15
2023-04-11T00:47:34.965Z,95.33
2023-04-11T00:48:06.905Z,95.38
2023-04-11T00:48:38.686Z,95.58
2023-04-11T00:49:11.417Z,95.52
2023-04-11T00:49:43.318Z,95.28
2023-04-11T00:50:16.004Z,95.33
2023-04-11T00:50:47.748Z,95.43
2023-04-11T00:51:20.310Z,95.37
2023-04-11T00:51:52.394Z,95.32
2023-04-11T00:52:24.249Z,95.41
2023-04-11T00:52:57.899Z,95.57
2023-04-11T00:53:32.910Z,95.73
2023-04-11T00:54:04.688Z,95.79
2023-04-11T00:54:36.348Z,96.09
2023-04-11T00:55:08.426Z,96.22
2023-04-11T00:55:40.793Z,96.10
2023-04-11T00:56:12.755Z,95.93
2023-04-11T00:56:44.408Z,95.79
2023-04-11T00:57:16.219Z,95.83
2023-04-11T00:57:47.911Z,95.70
2023-04-11T00:58:19.575Z,95.53
2023-04-11T00:58:51.213Z,95.46
2023-04-11T00:59:22.871Z,95.55
2023-04-11T00:59:54.586Z,95.47
2023-04-11T01:00:27.794Z,95.14
2023-04-11T01:00:59.441Z,95.26
2023-04-11T01:01:36.397Z,95.89
2023-04-11T01:02:08.273Z,96.29
2023-04-11T01:02:43.456Z,95.88
2023-04-11T01:03:15.808Z,95.62
2023-04-11T01:03:48.380Z,96.05
2023-04-11T01:04:21.415Z,96.47
2023-04-11T01:04:53.445Z,95.88
2023-04-11T01:05:26.239Z,95.73
2023-04-11T01:05:57.849Z,95.88
2023-04-11T01:06:30.953Z,95.97
2023-04-11T01:07:06.247Z,96.22
2023-04-11T01:07:39.854Z,96.64
2023-04-11T01:08:12.048Z,96.70
2023-04-11T01:08:44.611Z,96.31
2023-04-11T01:09:16.965Z,96.31
2023-04-11T01:09:49.492Z,96.39
2023-04-11T01:10:22.218Z,96.37
2023-04-11T01:10:54.078Z,96.27
2023-04-11T01:11:26.228Z,96.29
2023-04-11T01:11:59.710Z,96.26
2023-04-11T01:12:32.222Z,96.36
2023-04-11T01:13:03.972Z,96.60
2023-04-11T01:13:39.409Z,96.48
2023-04-11T01:14:11.106Z,96.55
2023-04-11T01:14:42.781Z,96.64
2023-04-11T01:15:14.680Z,96.77
2023-04-11T01:15:46.370Z,96.71
2023-04-11T01:16:21.480Z,96.87
2023-04-11T01:16:53.529Z,97.09
2023-04-11T01:17:25.855Z,96.87
2023-04-11T01:17:57.924Z,96.68
2023-04-11T01:18:29.970Z,96.67
2023-04-11T01:19:01.691Z,96.62
2023-04-11T01:19:34.232Z,96.64
2023-04-11T01:20:07.915Z,96.69
2023-04-11T01:20:39.707Z,96.58
2023-04-11T01:21:11.606Z,96.61
2023-04-11T01:21:43.386Z,96.56
2023-04-11T01:22:18.154Z,96.53
2023-04-11T01:22:50.703Z,96.68
2023-04-11T01:23:25.718Z,96.86
2023-04-11T01:23:58.514Z,96.76
2023-04-11T01:24:30.849Z,96.71
2023-04-11T01:25:02.988Z,96.48
2023-04-11T01:25:35.161Z,96.57
2023-04-11T01:26:07.051Z,96.45
2023-04-11T01:26:38.660Z,96.26
2023-04-11T01:27:10.577Z,96.17
2023-04-11T01:27:43.104Z,95.97
2023-04-11T01:28:14.726Z,95.82
2023-04-11T01:28:46.407Z,95.74
2023-04-11T01:29:18.041Z,95.67
2023-04-11T01:29:49.707Z,95.43
2023-04-11T01:30:21.351Z,95.36
2023-04-11T01:30:53.117Z,95.41
2023-04-11T01:31:24.798Z,95.55
2023-04-11T01:31:56.398Z,95.59
2023-04-11T01:32:28.112Z,95.57
2023-04-11T01:32:59.869Z,95.86
2023-04-11T01:33:31.959Z,95.87
2023-04-11T01:34:05.066Z,95.61
2023-04-11T01:34:39.910Z,95.34
2023-04-11T01:35:12.731Z,95.26
2023-04-11T01:35:44.479Z,95.20
2023-04-11T01:36:16.345Z,95.29
2023-04-11T01:36:48.217Z,95.29
2023-04-11T01:37:20.016Z,95.29
2023-04-11T01:37:51.830Z,95.03
2023-04-11T01:38:23.514Z,94.87
2023-04-11T01:38:56.224Z,94.92
2023-04-11T01:39:28.097Z,95.09
2023-04-11T01:39:59.805Z,95.26
2023-04-11T01:40:32.830Z,95.44
2023-04-11T01:41:05.817Z,96.11
2023-04-11T01:41:37.929Z,96.19
2023-04-11T01:42:10.382Z,96.08
2023-04-11T01:42:42.159Z,95.81
2023-04-11T01:43:13.846Z,95.57
2023-04-11T01:43:46.020Z,95.52
2023-04-11T01:44:19.211Z,95.36
2023-04-11T01:44:51.659Z,95.57
2023-04-11T01:45:23.760Z,95.59
2023-04-11T01:45:55.569Z,95.48
2023-04-11T01:46:27.347Z,95.40
2023-04-11T01:46:59.447Z,95.53
2023-04-11T01:47:31.136Z,95.72
2023-04-11T01:48:07.884Z,95.59
2023-04-11T01:48:39.691Z,95.64
2023-04-11T01:49:15.554Z,95.70
2023-04-11T01:49:47.317Z,95.58
2023-04-11T01:50:19.008Z,95.48
2023-04-11T01:50:51.989Z,95.55
2023-04-11T01:51:23.642Z,95.76
2023-04-11T01:51:55.817Z,96.11
2023-04-11T01:52:27.429Z,96.18
2023-04-11T01:52:59.033Z,96.58
2023-04-11T01:53:30.769Z,96.80
2023-04-11T01:54:02.397Z,97.00
2023-04-11T01:54:34.040Z,96.95
2023-04-11T01:55:06.172Z,97.08
2023-04-11T01:55:37.826Z,96.85
2023-04-11T01:56:10.065Z,96.58
2023-04-11T01:56:41.678Z,96.29
2023-04-11T01:57:13.279Z,95.75
2023-04-11T01:57:44.926Z,95.55
2023-04-11T01:58:16.601Z,95.75
2023-04-11T01:58:48.198Z,96.12
2023-04-11T01:59:19.831Z,96.35
2023-04-11T01:59:51.483Z,96.44
2023-04-11T02:00:23.144Z,96.39
2023-04-11T02:00:54.743Z,96.61
2023-04-11T02:01:28.020Z,96.62
2023-04-11T02:01:59.693Z,96.89
2023-04-11T02:02:31.497Z,96.76
2023-04-11T02:03:03.681Z,96.42
2023-04-11T02:03:37.000Z,96.16
2023-04-11T02:04:08.947Z,96.23
2023-04-11T02:04:40.646Z,95.94
2023-04-11T02:05:12.337Z,95.87
2023-04-11T02:05:43.926Z,96.02
2023-04-11T02:06:16.843Z,95.82
2023-04-11T02:06:48.443Z,95.75
2023-04-11T02:07:21.130Z,95.94
2023-04-11T02:07:52.723Z,96.15
2023-04-11T02:08:24.363Z,95.97
2023-04-11T02:08:56.240Z,95.77
2023-04-11T02:09:27.957Z,95.77
2023-04-11T02:10:00.285Z,95.60
2023-04-11T02:10:31.995Z,95.46
2023-04-11T02:11:03.768Z,96.27
2023-04-11T02:11:35.496Z,96.40
2023-04-11T02:12:07.390Z,96.50
2023-04-11T02:12:39.027Z,96.41
2023-04-11T02:13:10.994Z,96.38
2023-04-11T02:13:42.598Z,96.40
2023-04-11T02:14:14.510Z,96.64
2023-04-11T02:14:46.642Z,96.73
2023-04-11T02:15:18.339Z,96.87
2023-04-11T02:15:50.044Z,97.04
2023-04-11T02:16:25.747Z,97.13
2023-04-11T02:16:57.420Z,97.37
2023-04-11T02:17:31.046Z,97.31
2023-04-11T02:18:02.912Z,97.23
2023-04-11T02:18:34.954Z,97.23
2023-04-11T02:19:06.762Z,97.23
2023-04-11T02:19:45.545Z,97.39
2023-04-11T02:20:17.317Z,97.47
2023-04-11T02:20:50.260Z,97.50
2023-04-11T02:21:22.244Z,97.49
2023-04-11T02:21:53.811Z,97.53
2023-04-11T02:22:25.440Z,97.47
2023-04-11T02:22:58.673Z,97.44
2023-04-11T02:23:30.386Z,97.14
2023-04-11T02:24:01.984Z,97.16
2023-04-11T02:24:33.659Z,97.01
2023-04-11T02:25:06.476Z,96.81
2023-04-11T02:25:39.071Z,96.87
2023-04-11T02:26:10.856Z,97.02
2023-04-11T02:26:42.487Z,97.11
2023-04-11T02:27:14.607Z,97.22
2023-04-11T02:27:46.297Z,97.42
2023-04-11T02:28:17.869Z,97.41
2023-04-11T02:28:49.432Z,97.33
2023-04-11T02:29:21.113Z,97.31
2023-04-11T02:29:52.820Z,97.27
2023-04-11T02:30:24.468Z,97.11
2023-04-11T02:30:56.336Z,96.96
2023-04-11T02:31:28.358Z,96.69
2023-04-11T02:32:00.482Z,96.54
2023-04-11T02:32:36.699Z,96.77
2023-04-11T02:33:08.424Z,96.58
2023-04-11T02:33:40.150Z,96.49
2023-04-11T02:34:11.748Z,96.45
2023-04-11T02:34:43.566Z,96.62
2023-04-11T02:35:16.561Z,96.78
2023-04-11T02:35:48.478Z,96.83
2023-04-11T02:36:20.156Z,97.09
2023-04-11T02:36:51.838Z,97.32
2023-04-11T02:37:23.994Z,97.58
2023-04-11T02:37:55.635Z,97.62
2023-04-11T02:38:27.305Z,97.68
2023-04-11T02:38:58.932Z,97.67
2023-04-11T02:39:30.585Z,97.51
2023-04-11T02:40:04.317Z,97.44
2023-04-11T02:40:35.887Z,97.04
2023-04-11T02:41:08.518Z,97.01
2023-04-11T02:41:41.354Z,96.70
2023-04-11T02:42:13.433Z,96.67
2023-04-11T02:42:45.092Z,96.55
2023-04-11T02:43:16.763Z,96.80
2023-04-11T02:43:48.474Z,96.68
2023-04-11T02:44:20.154Z,96.64
2023-04-11T02:44:55.616Z,96.94
2023-04-11T02:45:27.274Z,97.07
2023-04-11T02:46:09.602Z,97.26
2023-04-11T02:46:43.674Z,97.49
2023-04-11T02:47:15.622Z,97.47
2023-04-11T02:47:47.349Z,97.36
2023-04-11T02:48:19.107Z,97.37
2023-04-11T02:48:50.862Z,97.41
2023-04-11T02:49:22.435Z,97.44
2023-04-11T02:49:54.096Z,97.57
2023-04-11T02:50:28.755Z,97.72
2023-04-11T02:51:00.406Z,97.68
2023-04-11T02:51:33.230Z,97.67
2023-04-11T02:52:04.934Z,97.80
2023-04-11T02:52:37.734Z,97.80
2023-04-11T02:53:09.685Z,97.76
2023-04-11T02:53:41.516Z,97.73
2023-04-11T02:54:13.136Z,97.81
2023-04-11T02:54:46.105Z,97.62
2023-04-11T02:55:17.717Z,97.35
2023-04-11T02:55:49.386Z,97.43
2023-04-11T02:56:21.906Z,97.55
2023-04-11T02:56:53.482Z,97.63
2023-04-11T02:57:25.077Z,97.72
2023-04-11T02:57:56.843Z,97.77
2023-04-11T02:58:28.955Z,97.82
2023-04-11T02:59:00.749Z,97.85
2023-04-11T02:59:32.512Z,97.85
2023-04-11T03:00:07.450Z,97.78
2023-04-11T03:00:39.210Z,97.68
2023-04-11T03:01:12.102Z,97.81
2023-04-11T03:01:45.580Z,97.74
2023-04-11T03:02:17.422Z,97.81
2023-04-11T03:02:49.578Z,98.02
2023-04-11T03:03:21.388Z,98.34
2023-04-11T03:03:53.334Z,98.50
2023-04-11T03:04:25.442Z,98.68
2023-04-11T03:04:57.061Z,98.54
2023-04-11T03:05:28.717Z,98.55
2023-04-11T03:06:00.310Z,98.49
2023-04-11T03:06:33.353Z,98.40
2023-04-11T03:07:05.058Z,97.59
2023-04-11T03:07:38.532Z,97.45
2023-04-11T03:08:10.155Z,97.49
2023-04-11T03:08:41.849Z,97.26
2023-04-11T03:09:13.593Z,97.27
2023-04-11T03:09:45.222Z,97.27
2023-04-11T03:10:16.891Z,97.36
2023-04-11T03:10:48.508Z,97.31
2023-04-11T03:11:20.612Z,97.35
2023-04-11T03:11:52.196Z,97.41
2023-04-11T03:12:23.837Z,97.47
2023-04-11T03:12:55.616Z,97.54
2023-04-11T03:13:27.316Z,97.62
2023-04-11T03:13:58.943Z,97.63
2023-04-11T03:14:30.662Z,97.91
2023-04-11T03:15:02.292Z,98.02
2023-04-11T03:15:33.977Z,98.46
2023-04-11T03:16:06.892Z,98.53
2023-04-11T03:16:38.624Z,98.63
2023-04-11T03:17:10.350Z,98.66
2023-04-11T03:17:42.297Z,98.53
2023-04-11T03:18:14.004Z,98.36
2023-04-11T03:18:45.897Z,98.21
2023-04-11T03:19:17.538Z,98.15
2023-04-11T03:19:49.170Z,98.23
2023-04-11T03:20:21.731Z,98.16
2023-04-11T03:20:53.460Z,98.12
2023-04-11T03:21:25.802Z,98.19
2023-04-11T03:21:57.422Z,98.18
2023-04-11T03:22:29.011Z,98.27
2023-04-11T03:23:00.886Z,98.14
2023-04-11T03:23:32.571Z,98.03
2023-04-11T03:24:04.373Z,98.06
2023-04-11T03:24:36.244Z,98.04
2023-04-11T03:25:08.780Z,97.95
2023-04-11T03:25:40.742Z,97.93
2023-04-11T03:26:13.202Z,97.86
2023-04-11T03:26:44.833Z,97.92
2023-04-11T03:27:16.417Z,97.90
2023-04-11T03:27:47.974Z,97.87
2023-04-11T03:28:19.846Z,97.90
2023-04-11T03:28:51.443Z,97.91
2023-04-11T03:29:23.037Z,97.99
2023-04-11T03:29:54.649Z,98.33
2023-04-11T03:30:26.262Z,98.49
2023-04-11T03:30:57.956Z,98.60
2023-04-11T03:31:30.389Z,98.81
2023-04-11T03:32:02.258Z,98.84
2023-04-11T03:32:33.965Z,98.54
2023-04-11T03:33:06.290Z,98.53
2023-04-11T03:33:38.069Z,98.69
2023-04-11T03:34:09.760Z,98.55
2023-04-11T03:34:41.395Z,98.32
2023-04-11T03:35:14.830Z,98.07
2023-04-11T03:35:46.548Z,97.98
2023-04-11T03:36:18.224Z,97.47
2023-04-11T03:36:49.858Z,97.25
2023-04-11T03:37:21.573Z,97.00
2023-04-11T03:37:53.906Z,96.87
2023-04-11T03:38:25.810Z,96.72
2023-04-11T03:38:57.878Z,96.88
2023-04-11T03:39:29.698Z,97.11
2023-04-11T03:40:01.290Z,97.07
2023-04-11T03:40:32.917Z,97.11
2023-04-11T03:41:04.813Z,97.30
2023-04-11T03:41:36.479Z,97.61
2023-04-11T03:42:08.292Z,97.97
2023-04-11T03:42:39.923Z,98.41
2023-04-11T03:43:11.637Z,98.53
2023-04-11T03:43:43.279Z,98.59
2023-04-11T03:44:15.481Z,98.67
2023-04-11T03:44:47.076Z,98.77
2023-04-11T03:45:18.826Z,98.69
2023-04-11T03:45:51.732Z,98.55
2023-04-11T03:46:23.415Z,98.16
2023-04-11T03:46:55.182Z,98.37
2023-04-11T03:47:26.917Z,98.55
2023-04-11T03:47:58.588Z,98.23
2023-04-11T03:48:31.047Z,98.45
2023-04-11T03:49:02.661Z,98.10
2023-04-11T03:49:34.257Z,97.30
2023-04-11T03:50:07.374Z,97.41
2023-04-11T03:50:39.516Z,97.42
2023-04-11T03:51:11.118Z,97.30
2023-04-11T03:51:43.104Z,97.57
2023-04-11T03:52:15.280Z,97.72
2023-04-11T03:52:47.010Z,97.92
2023-04-11T03:53:18.844Z,97.97
2023-04-11T03:53:52.404Z,97.78
2023-04-11T03:54:24.078Z,97.85
2023-04-11T03:54:55.704Z,97.87
2023-04-11T03:55:27.337Z,98.08
2023-04-11T03:55:59.006Z,98.03
2023-04-11T03:56:30.724Z,97.87
2023-04-11T03:57:02.406Z,98.09
2023-04-11T03:57:34.045Z,98.18
2023-04-11T03:58:05.656Z,98.60
2023-04-11T03:58:37.372Z,98.96
2023-04-11T03:59:09.028Z,99.18
2023-04-11T03:59:40.770Z,98.85
2023-04-11T04:00:12.779Z,98.76
2023-04-11T04:00:44.375Z,98.52
2023-04-11T04:01:15.970Z,98.55
2023-04-11T04:01:47.675Z,98.55
2023-04-11T04:02:19.528Z,98.94
2023-04-11T04:02:51.414Z,98.91
2023-04-11T04:03:23.395Z,98.69
2023-04-11T04:03:55.447Z,98.67
2023-04-11T04:04:27.695Z,98.66
2023-04-11T04:04:59.440Z,98.39
2023-04-11T04:05:31.041Z,98.13
2023-04-11T04:06:02.641Z,98.03
2023-04-11T04:06:34.358Z,97.94
2023-04-11T04:07:06.127Z,97.94
2023-04-11T04:07:37.881Z,97.97
2023-04-11T04:08:09.535Z,97.86
2023-04-11T04:08:41.305Z,97.76
2023-04-11T04:09:13.000Z,97.52
2023-04-11T04:09:44.612Z,97.55
2023-04-11T04:10:16.253Z,97.63
2023-04-11T04:10:47.954Z,97.65
2023-04-11T04:11:19.579Z,97.77
2023-04-11T04:11:51.172Z,97.78
2023-04-11T04:12:22.884Z,97.93
2023-04-11T04:12:54.628Z,98.00
2023-04-11T04:13:27.703Z,98.07
2023-04-11T04:13:59.288Z,98.38
2023-04-11T04:14:30.943Z,98.69
2023-04-11T04:15:02.612Z,98.77
2023-04-11T04:15:34.342Z,98.69
2023-04-11T04:16:06.366Z,98.81
2023-04-11T04:16:38.068Z,98.67
2023-04-11T04:17:09.988Z,98.59
2023-04-11T04:17:42.334Z,98.46
2023-04-11T04:18:13.983Z,97.52
2023-04-11T04:18:45.663Z,97.17
2023-04-11T04:19:17.423Z,96.89
2023-04-11T04:19:49.187Z,96.85
2023-04-11T04:20:20.883Z,96.97
2023-04-11T04:20:52.627Z,96.94
2023-04-11T04:21:26.741Z,97.02
2023-04-11T04:21:58.374Z,97.11
2023-04-11T04:22:30.196Z,97.33
2023-04-11T04:23:04.635Z,97.73
2023-04-11T04:23:36.264Z,98.01
2023-04-11T04:24:08.143Z,97.81
2023-04-11T04:24:42.052Z,97.46
2023-04-11T04:25:15.869Z,97.72
2023-04-11T04:25:51.246Z,97.81
2023-04-11T04:26:25.249Z,98.11
2023-04-11T04:27:01.023Z,98.13
2023-04-11T04:27:32.710Z,97.90
2023-04-11T04:28:04.427Z,97.57
2023-04-11T04:28:36.046Z,97.48
2023-04-11T04:29:10.160Z,97.36
2023-04-11T04:29:48.715Z,97.34
2023-04-11T04:30:29.107Z,97.25
2023-04-11T04:31:02.271Z,97.14
2023-04-11T04:31:34.388Z,96.91
2023-04-11T04:32:11.330Z,96.63
2023-04-11T04:32:44.227Z,96.43
2023-04-11T04:33:18.771Z,96.61
2023-04-11T04:33:50.355Z,96.97
2023-04-11T04:34:24.555Z,96.87
2023-04-11T04:34:56.302Z,96.73
2023-04-11T04:35:28.139Z,96.96
2023-04-11T04:36:00.255Z,97.19
2023-04-11T04:36:32.091Z,97.01
2023-04-11T04:37:03.742Z,97.20
2023-04-11T04:37:39.588Z,97.30
2023-04-11T04:38:17.524Z,97.34
2023-04-11T04:38:50.519Z,97.47
2023-04-11T04:39:22.119Z,97.40
2023-04-11T04:39:55.950Z,97.71
2023-04-11T04:40:31.604Z,97.77
2023-04-11T04:41:06.105Z,97.69
2023-04-11T04:41:37.660Z,97.77
2023-04-11T04:42:09.238Z,97.59
2023-04-11T04:42:44.089Z,97.49
2023-04-11T04:43:20.233Z,97.31
2023-04-11T04:43:54.911Z,97.19
2023-04-11T04:44:27.436Z,97.32
2023-04-11T04:44:59.014Z,97.36
2023-04-11T04:45:30.638Z,97.14
2023-04-11T04:46:02.380Z,97.07
2023-04-11T04:46:36.942Z,97.03
2023-04-11T04:47:08.607Z,96.87
2023-04-11T04:47:40.353Z,96.85
2023-04-11T04:48:15.022Z,96.78
2023-04-11T04:48:46.555Z,96.80
2023-04-11T04:49:18.120Z,96.58
2023-04-11T04:49:54.143Z,96.69
2023-04-11T04:50:25.756Z,96.85
2023-04-11T04:50:57.380Z,96.69
2023-04-11T04:51:30.316Z,96.52
2023-04-11T04:52:02.024Z,96.59
2023-04-11T04:52:34.004Z,96.45
2023-04-11T04:53:06.552Z,96.54
2023-04-11T04:53:38.959Z,96.51
2023-04-11T04:54:11.178Z,96.48
2023-04-11T04:54:43.093Z,96.41
2023-04-11T04:55:15.124Z,96.41
2023-04-11T04:55:46.939Z,96.48
2023-04-11T04:56:18.577Z,96.48
2023-04-11T04:56:50.284Z,96.67
2023-04-11T04:57:21.991Z,96.45
2023-04-11T04:57:53.605Z,96.22
2023-04-11T04:58:25.534Z,96.00
2023-04-11T04:58:57.945Z,96.03
2023-04-11T04:59:29.584Z,96.37
2023-04-11T05:00:01.216Z,96.31
2023-04-11T05:00:33.741Z,96.32
2023-04-11T05:01:06.112Z,96.46
2023-04-11T05:01:40.051Z,96.59
2023-04-11T05:02:12.031Z,96.57
2023-04-11T05:02:43.980Z,96.43
2023-04-11T05:03:17.302Z,96.35
2023-04-11T05:03:59.096Z,96.44
2023-04-11T05:04:34.138Z,96.58
2023-04-11T05:05:07.786Z,96.32
2023-04-11T05:05:39.397Z,95.97
2023-04-11T05:06:11.083Z,95.92
2023-04-11T05:06:43.088Z,95.84
2023-04-11T05:07:14.649Z,96.01
2023-04-11T05:07:46.374Z,95.97
2023-04-11T05:08:22.043Z,95.90
2023-04-11T05:08:54.155Z,95.75
2023-04-11T05:09:26.340Z,95.75
2023-04-11T05:09:57.963Z,96.03
2023-04-11T05:10:29.590Z,95.85
2023-04-11T05:11:01.422Z,95.71
2023-04-11T05:11:33.867Z,95.86
2023-04-11T05:12:07.203Z,95.60
2023-04-11T05:12:38.977Z,95.34
2023-04-11T05:13:10.701Z,95.19
2023-04-11T05:13:42.321Z,95.64
2023-04-11T05:14:13.933Z,95.21
2023-04-11T05:14:45.934Z,95.01
2023-04-11T05:15:17.874Z,95.05
2023-04-11T05:15:50.198Z,94.66
2023-04-11T05:16:22.455Z,94.57
2023-04-11T05:16:54.074Z,94.64
2023-04-11T05:17:26.323Z,94.83
2023-04-11T05:17:58.022Z,94.56
2023-04-11T05:18:30.655Z,94.46
2023-04-11T05:19:02.285Z,94.38
2023-04-11T05:19:33.911Z,94.38
2023-04-11T05:20:07.884Z,94.28
2023-04-11T05:20:39.680Z,94.19
2023-04-11T05:21:11.826Z,93.94
2023-04-11T05:21:43.443Z,93.98
2023-04-11T05:22:15.155Z,94.02
2023-04-11T05:22:48.893Z,94.10
2023-04-11T05:23:20.689Z,94.16
2023-04-11T05:23:52.564Z,94.33
2023-04-11T05:24:24.152Z,94.68
2023-04-11T05:24:57.497Z,94.92
2023-04-11T05:25:29.168Z,94.49
2023-04-11T05:26:01.280Z,94.28
2023-04-11T05:26:32.960Z,94.39
2023-04-11T05:27:04.709Z,94.61
2023-04-11T05:27:36.330Z,94.49
2023-04-11T05:28:07.950Z,94.36
2023-04-11T05:28:39.631Z,93.89
2023-04-11T05:29:11.699Z,94.16
2023-04-11T05:29:43.280Z,94.14
2023-04-11T05:30:14.986Z,94.38
2023-04-11T05:30:46.615Z,93.96
2023-04-11T05:31:18.520Z,93.57
2023-04-11T05:31:50.232Z,93.63
2023-04-11T05:32:21.918Z,93.01
2023-04-11T05:32:53.622Z,92.85
2023-04-11T05:33:25.285Z,92.61
2023-04-11T05:33:58.396Z,92.42
2023-04-11T05:34:31.849Z,92.30
2023-04-11T05:35:04.057Z,92.49
2023-04-11T05:35:35.888Z,92.38
2023-04-11T05:36:07.986Z,92.15
2023-04-11T05:36:39.625Z,92.10
2023-04-11T05:37:11.244Z,91.82
2023-04-11T05:37:43.438Z,91.74
2023-04-11T05:38:15.584Z,92.01
2023-04-11T05:38:47.200Z,92.48
2023-04-11T05:39:18.836Z,92.84
2023-04-11T05:39:50.834Z,92.63
2023-04-11T05:40:22.538Z,92.12
2023-04-11T05:40:54.235Z,91.80
2023-04-11T05:41:26.872Z,91.77
2023-04-11T05:41:58.482Z,91.82
2023-04-11T05:42:30.132Z,92.02
2023-04-11T05:43:01.746Z,91.94
2023-04-11T05:43:33.348Z,91.58
2023-04-11T05:44:04.932Z,91.69
2023-04-11T05:44:36.550Z,91.43
2023-04-11T05:45:08.743Z,91.81
2023-04-11T05:45:41.257Z,92.07
2023-04-11T05:46:13.445Z,91.81
2023-04-11T05:46:45.119Z,92.28
2023-04-11T05:47:16.722Z,92.76
2023-04-11T05:47:48.372Z,92.04
2023-04-11T05:48:20.164Z,91.85
2023-04-11T05:48:51.731Z,91.30
2023-04-11T05:49:23.316Z,91.47
2023-04-11T05:49:54.915Z,91.21
2023-04-11T05:50:26.526Z,90.89
2023-04-11T05:50:58.477Z,90.90
2023-04-11T05:51:30.119Z,91.37
2023-04-11T05:52:01.886Z,91.12
2023-04-11T05:52:33.529Z,90.97
2023-04-11T05:53:05.151Z,91.02
2023-04-11T05:53:36.828Z,90.82
2023-04-11T05:54:08.447Z,90.88
2023-04-11T05:54:40.316Z,90.73
2023-04-11T05:55:12.213Z,90.74
2023-04-11T05:55:44.128Z,90.79
2023-04-11T05:56:15.722Z,90.48
2023-04-11T05:56:47.311Z,90.27
2023-04-11T05:57:18.962Z,89.84
2023-04-11T05:57:50.705Z,89.99
2023-04-11T05:58:23.154Z,89.58
2023-04-11T05:58:54.771Z,89.20
2023-04-11T05:59:28.900Z,89.18
2023-04-11T06:00:02.131Z,89.70
2023-04-11T06:00:33.919Z,89.61
2023-04-11T06:01:07.383Z,89.07
2023-04-11T06:01:40.224Z,89.08
2023-04-11T06:02:12.473Z,89.53
2023-04-11T06:02:44.618Z,90.33
2023-04-11T06:03:17.212Z,90.23
2023-04-11T06:03:48.922Z,90.07
2023-04-11T06:04:20.930Z,89.42
2023-04-11T06:04:52.786Z,89.73
2023-04-11T06:05:25.311Z,90.54
2023-04-11T06:05:56.966Z,89.53
2023-04-11T06:06:28.808Z,89.69
2023-04-11T06:07:00.638Z,89.41
2023-04-11T06:07:33.748Z,88.87
2023-04-11T06:08:07.486Z,88.87
2023-04-11T06:08:39.199Z,88.87
2023-04-11T06:09:10.942Z,88.82
2023-04-11T06:09:42.598Z,88.92
2023-04-11T06:10:14.335Z,89.07
2023-04-11T06:10:46.175Z,89.45
2023-04-11T06:11:17.776Z,88.65
2023-04-11T06:11:49.373Z,88.27
2023-04-11T06:12:20.994Z,88.52
2023-04-11T06:12:53.444Z,88.81
2023-04-11T06:13:26.162Z,88.58
2023-04-11T06:13:57.901Z,88.24
2023-04-11T06:14:29.598Z,88.13
2023-04-11T06:15:01.552Z,88.48
2023-04-11T06:15:33.298Z,87.68
2023-04-11T06:16:06.592Z,87.30
2023-04-11T06:16:38.947Z,87.80
2023-04-11T06:17:10.675Z,87.74
2023-04-11T06:17:42.438Z,87.92
2023-04-11T06:18:14.382Z,88.18
2023-04-11T06:18:45.960Z,87.97
2023-04-11T06:19:17.577Z,87.36
2023-04-11T06:19:49.145Z,87.77
2023-04-11T06:20:22.410Z,87.81
2023-04-11T06:20:54.170Z,88.10
2023-04-11T06:21:26.327Z,87.97
2023-04-11T06:21:58.023Z,88.11
2023-04-11T06:22:29.592Z,87.94
2023-04-11T06:23:02.139Z,88.24
2023-04-11T06:23:33.864Z,88.54
2023-04-11T06:24:09.073Z,87.94
2023-04-11T06:24:41.180Z,87.56
2023-04-11T06:25:13.112Z,87.59
2023-04-11T06:25:44.820Z,87.62
2023-04-11T06:26:16.575Z,87.82
2023-04-11T06:26:48.217Z,87.67
2023-04-11T06:27:19.827Z,86.94
2023-04-11T06:27:51.750Z,86.95
2023-04-11T06:28:23.433Z,87.67
2023-04-11T06:28:55.021Z,87.39
2023-04-11T06:29:27.056Z,87.07
2023-04-11T06:29:58.673Z,86.29
2023-04-11T06:30:30.502Z,86.20
2023-04-11T06:31:02.269Z,86.62
2023-04-11T06:31:34.265Z,86.63
2023-04-11T06:32:06.778Z,86.54
2023-04-11T06:32:38.643Z,86.18
2023-04-11T06:33:10.660Z,85.94
2023-04-11T06:33:42.224Z,86.22
2023-04-11T06:34:13.796Z,86.51
2023-04-11T06:34:45.489Z,86.23
2023-04-11T06:35:17.305Z,85.78
2023-04-11T06:35:49.634Z,85.61
2023-04-11T06:36:21.607Z,85.51
2023-04-11T06:36:53.455Z,85.46
2023-04-11T06:37:25.251Z,85.37
2023-04-11T06:37:56.898Z,85.89
2023-04-11T06:38:28.531Z,86.15
2023-04-11T06:39:00.390Z,85.69
2023-04-11T06:39:32.077Z,85.55
2023-04-11T06:40:07.139Z,85.41
2023-04-11T06:40:38.729Z,85.98
2023-04-11T06:41:10.405Z,86.54
2023-04-11T06:41:42.076Z,86.28
2023-04-11T06:42:13.707Z,86.74
2023-04-11T06:42:45.341Z,86.30
2023-04-11T06:43:16.967Z,85.91
2023-04-11T06:43:48.580Z,85.47
2023-04-11T06:44:20.359Z,84.95
2023-04-11T06:44:52.164Z,84.93
2023-04-11T06:45:23.844Z,85.17
2023-04-11T06:45:55.541Z,85.21
2023-04-11T06:46:27.280Z,85.12
2023-04-11T06:46:59.364Z,84.64
2023-04-11T06:47:31.348Z,85.01
2023-04-11T06:48:03.109Z,84.87
2023-04-11T06:48:34.874Z,84.26
2023-04-11T06:49:09.348Z,84.24
2023-04-11T06:49:41.385Z,84.47
2023-04-11T06:50:13.137Z,83.64
2023-04-11T06:50:45.963Z,83.85
2023-04-11T06:51:17.523Z,83.14
2023-04-11T06:51:51.905Z,82.01
2023-04-11T06:52:23.498Z,80.94
2023-04-11T06:52:55.445Z,81.69
2023-04-11T06:53:27.217Z,81.12
2023-04-11T06:53:58.870Z,81.75
2023-04-11T06:54:30.635Z,81.55
2023-04-11T06:55:02.330Z,81.50